createdAt,value
2022-12-03T00:00:53.018Z,42.50
2022-12-03T00:03:26.863Z,38.80
2022-12-03T00:05:58.695Z,41.10
2022-12-03T00:08:30.229Z,37.20
2022-12-03T00:11:01.803Z,36.80
2022-12-03T00:13:33.514Z,37.40
2022-12-03T00:16:05.553Z,35.90
2022-12-03T00:18:37.121Z,39.20
2022-12-03T00:21:09.271Z,38.70
2022-12-03T00:23:42.466Z,39.70
2022-12-03T00:28:44.404Z,39.90
2022-12-03T00:31:16.149Z,39.30
2022-12-03T00:33:47.778Z,37.90
2022-12-03T00:36:20.080Z,38.50
2022-12-03T00:38:51.748Z,40.00
2022-12-03T00:41:23.237Z,41.90
2022-12-03T00:43:57.477Z,40.70
2022-12-03T00:46:29.454Z,43.20
2022-12-03T00:49:01.175Z,37.90
2022-12-03T00:51:32.786Z,36.40
2022-12-03T00:54:04.532Z,38.00
2022-12-03T00:56:36.042Z,39.30
2022-12-03T00:59:07.523Z,40.20
2022-12-03T01:01:39.110Z,42.40
2022-12-03T01:04:10.771Z,37.70
2022-12-03T01:06:42.475Z,40.40
2022-12-03T01:09:14.098Z,36.50
2022-12-03T01:11:45.608Z,35.70
2022-12-03T01:14:19.708Z,35.00
2022-12-03T01:16:51.483Z,37.60
2022-12-03T01:19:24.234Z,37.60
2022-12-03T01:21:56.188Z,35.80
2022-12-03T01:24:27.961Z,34.30
2022-12-03T01:26:59.500Z,34.90
2022-12-03T01:29:31.053Z,37.00
2022-12-03T01:32:19.450Z,38.20
2022-12-03T01:34:53.299Z,36.70
2022-12-03T01:37:26.939Z,39.10
2022-12-03T01:39:58.633Z,37.30
2022-12-03T01:42:34.344Z,34.70
2022-12-03T01:45:07.627Z,35.70
2022-12-03T01:47:41.324Z,31.90
2022-12-03T01:50:20.565Z,35.10
2022-12-03T01:52:52.201Z,32.60
2022-12-03T01:55:26.000Z,34.40
2022-12-03T01:58:00.656Z,35.70
2022-12-03T02:00:32.681Z,30.80
2022-12-03T02:03:12.520Z,33.10
2022-12-03T02:05:44.137Z,35.30
2022-12-03T02:08:33.599Z,33.90
2022-12-03T02:11:09.306Z,33.80
2022-12-03T02:13:41.053Z,35.20
2022-12-03T02:16:12.802Z,34.10
2022-12-03T02:18:44.969Z,34.80
2022-12-03T02:21:25.088Z,33.10
2022-12-03T02:24:05.198Z,36.00
2022-12-03T02:26:36.713Z,29.40
2022-12-03T02:29:08.451Z,32.70
2022-12-03T02:31:40.117Z,32.10
2022-12-03T02:34:12.691Z,34.60
2022-12-03T02:36:44.210Z,33.60
2022-12-03T02:39:15.702Z,35.10
2022-12-03T02:42:05.040Z,35.10
2022-12-03T02:44:36.842Z,35.50
2022-12-03T02:47:08.548Z,32.90
2022-12-03T02:49:40.512Z,35.30
2022-12-03T02:52:12.149Z,35.40
2022-12-03T02:54:44.158Z,37.60
2022-12-03T02:57:16.144Z,33.20
2022-12-03T02:59:48.632Z,31.90
2022-12-03T03:02:21.600Z,32.10
2022-12-03T03:04:53.915Z,28.90
2022-12-03T03:07:26.076Z,34.10
2022-12-03T03:09:58.903Z,29.70
2022-12-03T03:12:32.628Z,33.50
2022-12-03T03:15:11.162Z,35.00
2022-12-03T03:17:43.828Z,34.40
2022-12-03T03:20:16.401Z,31.50
2022-12-03T03:22:48.060Z,34.60
2022-12-03T03:25:22.445Z,34.40
2022-12-03T03:27:54.007Z,33.60
2022-12-03T03:30:25.515Z,32.50
2022-12-03T03:32:57.430Z,29.70
2022-12-03T03:35:29.696Z,32.90
2022-12-03T03:38:01.548Z,35.90
2022-12-03T03:40:33.370Z,33.60
2022-12-03T03:43:05.704Z,37.90
2022-12-03T03:45:37.424Z,36.90
2022-12-03T03:48:09.594Z,34.10
2022-12-03T03:50:41.832Z,29.40
2022-12-03T03:53:14.078Z,32.50
2022-12-03T03:55:46.058Z,32.10
2022-12-03T03:58:17.891Z,31.30
2022-12-03T04:00:49.528Z,35.80
2022-12-03T04:03:21.137Z,34.70
2022-12-03T04:05:52.717Z,33.60
2022-12-03T04:08:24.237Z,32.80
2022-12-03T04:11:13.060Z,37.80
2022-12-03T04:13:44.677Z,33.80
2022-12-03T04:16:16.196Z,31.60
2022-12-03T04:18:47.926Z,30.50
2022-12-03T04:21:39.167Z,34.40
2022-12-03T04:24:12.484Z,30.60
2022-12-03T04:27:01.945Z,33.00
2022-12-03T04:29:33.490Z,34.50
2022-12-03T04:32:22.638Z,31.70
2022-12-03T04:35:11.735Z,33.40
2022-12-03T04:37:43.622Z,36.00
2022-12-03T04:40:29.844Z,35.10
2022-12-03T04:43:01.339Z,33.70
2022-12-03T04:45:32.897Z,35.00
2022-12-03T04:48:04.654Z,34.60
2022-12-03T04:50:36.215Z,33.00
2022-12-03T04:53:07.772Z,38.10
2022-12-03T04:55:39.257Z,34.20
2022-12-03T04:58:11.432Z,36.30
2022-12-03T05:00:42.997Z,34.30
2022-12-03T05:03:14.549Z,35.00
2022-12-03T05:05:47.572Z,41.80
2022-12-03T05:08:19.120Z,38.10
2022-12-03T05:10:50.775Z,45.00
2022-12-03T05:13:22.316Z,46.10
2022-12-03T05:15:53.927Z,39.80
2022-12-03T05:18:25.521Z,53.80
2022-12-03T05:20:57.252Z,47.30
2022-12-03T05:23:28.880Z,41.60
2022-12-03T05:26:00.494Z,42.00
2022-12-03T05:28:32.198Z,45.10
2022-12-03T05:31:05.221Z,41.90
2022-12-03T05:33:42.456Z,45.30
2022-12-03T05:36:15.867Z,52.00
2022-12-03T05:38:47.579Z,54.60
2022-12-03T05:41:36.930Z,61.50
2022-12-03T05:44:08.700Z,55.60
2022-12-03T05:46:40.251Z,52.90
2022-12-03T05:49:11.815Z,40.70
2022-12-03T05:51:43.303Z,43.50
2022-12-03T05:54:14.783Z,39.80
2022-12-03T05:56:46.345Z,39.30
2022-12-03T05:59:17.970Z,44.10
2022-12-03T06:01:49.627Z,39.80
2022-12-03T06:04:21.241Z,42.50
2022-12-03T06:06:52.764Z,41.60
2022-12-03T06:09:24.286Z,48.20
2022-12-03T06:11:55.915Z,40.30
2022-12-03T06:14:30.112Z,37.40
2022-12-03T06:17:01.631Z,38.50
2022-12-03T06:19:33.585Z,39.00
2022-12-03T06:22:05.128Z,43.70
2022-12-03T06:24:36.614Z,45.20
2022-12-03T06:27:08.456Z,42.80
2022-12-03T06:29:40.206Z,41.30
2022-12-03T06:32:12.377Z,39.50
2022-12-03T06:34:43.889Z,40.00
2022-12-03T06:37:15.413Z,41.20
2022-12-03T06:39:46.956Z,39.30
2022-12-03T06:42:18.502Z,42.50
2022-12-03T06:44:49.971Z,53.40
2022-12-03T06:47:21.488Z,41.90
2022-12-03T06:49:52.968Z,39.10
2022-12-03T06:52:24.433Z,40.50
2022-12-03T06:54:56.219Z,42.80
2022-12-03T06:57:28.102Z,43.50
2022-12-03T06:59:59.623Z,42.40
2022-12-03T07:02:31.184Z,42.30
2022-12-03T07:05:03.006Z,45.20
2022-12-03T07:07:34.644Z,41.50
2022-12-03T07:10:07.853Z,44.70
2022-12-03T07:12:39.358Z,40.60
2022-12-03T07:15:12.319Z,40.10
2022-12-03T07:17:43.898Z,39.90
2022-12-03T07:20:16.758Z,38.40
2022-12-03T07:22:48.293Z,41.10
2022-12-03T07:25:23.463Z,43.20
2022-12-03T07:27:55.513Z,40.50
2022-12-03T07:30:27.910Z,48.00
2022-12-03T07:32:59.669Z,44.50
2022-12-03T07:35:31.297Z,40.90
2022-12-03T07:38:02.933Z,40.70
2022-12-03T07:40:34.479Z,45.20
2022-12-03T07:43:06.133Z,43.30
2022-12-03T07:45:37.668Z,47.90
2022-12-03T07:48:09.304Z,53.00
2022-12-03T07:50:40.895Z,48.80
2022-12-03T07:53:12.418Z,43.40
2022-12-03T07:55:43.958Z,42.70
2022-12-03T07:58:15.495Z,47.10
2022-12-03T08:00:47.020Z,44.60
2022-12-03T08:03:18.584Z,50.10
2022-12-03T08:05:50.129Z,43.10
2022-12-03T08:08:21.791Z,44.80
2022-12-03T08:10:53.284Z,53.80
2022-12-03T08:13:24.803Z,50.10
2022-12-03T08:15:58.872Z,48.40
2022-12-03T08:18:31.130Z,47.10
2022-12-03T08:21:02.903Z,57.00
2022-12-03T08:23:35.578Z,53.70
2022-12-03T08:26:14.151Z,49.10
2022-12-03T08:28:45.765Z,47.10
2022-12-03T08:31:25.786Z,51.40
2022-12-03T08:34:16.692Z,55.10
2022-12-03T08:36:52.262Z,49.00
2022-12-03T08:39:33.479Z,50.80
2022-12-03T08:42:35.500Z,52.10
2022-12-03T08:45:35.276Z,58.80
2022-12-03T08:51:22.249Z,51.10
2022-12-03T08:54:12.894Z,51.90
2022-12-03T08:59:36.427Z,50.00
2022-12-03T09:02:19.860Z,47.40
2022-12-03T09:04:53.317Z,48.10
2022-12-03T09:07:25.349Z,51.10
2022-12-03T09:09:57.297Z,52.50
2022-12-03T09:12:28.919Z,51.20
2022-12-03T09:15:00.474Z,49.30
2022-12-03T09:17:32.266Z,50.60
2022-12-03T09:20:05.414Z,46.40
2022-12-03T09:22:36.937Z,42.80
2022-12-03T09:25:09.776Z,52.80
2022-12-03T09:27:41.315Z,50.80
2022-12-03T09:30:14.505Z,49.80
2022-12-03T09:32:46.085Z,52.30
2022-12-03T09:35:17.846Z,55.30
2022-12-03T09:37:49.440Z,54.50
2022-12-03T09:40:21.477Z,55.90
2022-12-03T09:42:53.703Z,52.10
2022-12-03T09:45:25.284Z,55.10
2022-12-03T09:47:57.716Z,55.20
2022-12-03T09:50:29.719Z,50.80
2022-12-03T09:53:04.579Z,55.20
2022-12-03T09:55:36.437Z,49.20
2022-12-03T09:58:13.475Z,60.50
2022-12-03T10:00:48.137Z,61.50
2022-12-03T10:03:29.454Z,53.50
2022-12-03T10:06:01.517Z,55.20
2022-12-03T10:08:33.500Z,51.90
2022-12-03T10:11:05.105Z,56.20
2022-12-03T10:13:38.594Z,63.70
2022-12-03T10:16:13.492Z,52.90
2022-12-03T10:18:48.531Z,61.70
2022-12-03T10:24:27.026Z,55.40
2022-12-03T10:27:00.612Z,56.10
2022-12-03T10:38:03.409Z,48.50
2022-12-03T10:40:36.960Z,55.60
2022-12-03T10:43:24.387Z,52.50
2022-12-03T10:46:13.615Z,50.20
2022-12-03T10:48:45.229Z,53.20
2022-12-03T10:51:21.257Z,48.20
2022-12-03T10:53:54.301Z,56.50
2022-12-03T10:56:27.823Z,54.10
2022-12-03T11:04:36.842Z,49.70
2022-12-03T11:10:13.948Z,63.80
2022-12-03T11:13:05.991Z,71.30
2022-12-03T11:15:46.237Z,64.00
2022-12-03T11:19:03.228Z,57.30
2022-12-03T11:21:34.905Z,54.00
2022-12-03T11:24:21.732Z,61.60
2022-12-03T11:27:25.481Z,57.00
2022-12-03T11:30:02.433Z,55.10
2022-12-03T11:33:06.432Z,54.00
2022-12-03T11:36:15.478Z,56.90
2022-12-03T11:39:03.918Z,52.20
2022-12-03T11:41:36.821Z,60.90
2022-12-03T11:44:32.216Z,55.90
2022-12-03T11:47:14.753Z,60.90
2022-12-03T11:49:50.198Z,60.40
2022-12-03T11:55:34.398Z,60.40
2022-12-03T11:58:14.508Z,72.80
2022-12-03T12:01:04.794Z,62.60
2022-12-03T12:03:39.636Z,67.60
2022-12-03T12:06:13.403Z,81.10
2022-12-03T12:08:58.534Z,70.40
2022-12-03T12:11:31.879Z,69.20
2022-12-03T12:14:04.806Z,68.10
2022-12-03T12:16:51.699Z,71.50
2022-12-03T12:22:32.454Z,74.10
2022-12-03T12:25:06.088Z,68.00
2022-12-03T12:27:45.347Z,70.60
2022-12-03T12:30:18.518Z,79.00
2022-12-03T12:32:52.613Z,57.00
2022-12-03T12:35:35.328Z,67.00
2022-12-03T12:38:18.762Z,76.10
2022-12-03T12:40:53.530Z,64.70
2022-12-03T12:43:31.890Z,71.70
2022-12-03T12:46:46.035Z,75.70
2022-12-03T12:49:12.255Z,85.90
2022-12-03T12:54:36.042Z,87.70
2022-12-03T12:57:14.053Z,81.80
2022-12-03T12:59:45.640Z,71.30
2022-12-03T13:02:39.525Z,80.60
2022-12-03T13:08:10.111Z,72.30
2022-12-03T13:10:43.464Z,76.90
2022-12-03T13:16:12.971Z,74.10
2022-12-03T13:18:48.025Z,81.20
2022-12-03T13:27:48.415Z,77.40
2022-12-03T13:30:24.955Z,72.40
2022-12-03T13:33:07.639Z,67.60
2022-12-03T13:38:29.129Z,76.10
2022-12-03T13:41:07.081Z,85.10
2022-12-03T13:43:44.532Z,77.80
2022-12-03T13:49:16.776Z,76.30
2022-12-03T13:51:48.973Z,79.80
2022-12-03T13:54:24.928Z,73.40
2022-12-03T13:59:45.974Z,70.40
2022-12-03T14:02:17.614Z,66.80
2022-12-03T14:04:55.362Z,74.10
2022-12-03T14:07:30.521Z,82.20
2022-12-03T14:10:02.204Z,83.40
2022-12-03T14:12:37.992Z,75.60
2022-12-03T14:15:11.500Z,78.40
2022-12-03T14:20:14.604Z,81.20
2022-12-03T14:22:46.395Z,70.80
2022-12-03T14:25:29.655Z,88.20
2022-12-03T14:28:01.392Z,71.50
2022-12-03T14:30:32.925Z,70.60
2022-12-03T14:33:04.441Z,71.30
2022-12-03T14:35:36.007Z,76.00
2022-12-03T14:38:07.559Z,91.40
2022-12-03T14:40:40.314Z,81.90
2022-12-03T14:48:43.993Z,90.20
2022-12-03T14:51:25.710Z,94.70
2022-12-03T14:53:57.204Z,83.60
2022-12-03T14:56:34.443Z,90.70
2022-12-03T14:59:07.131Z,84.00
2022-12-03T15:01:38.841Z,80.10
2022-12-03T15:06:57.153Z,96.60
2022-12-03T15:09:28.692Z,95.00
2022-12-03T15:14:46.209Z,91.20
2022-12-03T15:20:10.227Z,80.60
2022-12-03T15:22:41.818Z,88.40
2022-12-03T15:25:13.665Z,79.40
2022-12-03T15:27:45.252Z,77.00
2022-12-03T15:30:17.629Z,89.30
2022-12-03T15:35:39.421Z,79.90
2022-12-03T15:43:55.028Z,91.30
2022-12-03T15:46:28.217Z,84.90
2022-12-03T15:49:12.870Z,72.90
2022-12-03T15:54:45.407Z,88.00
2022-12-03T16:00:15.577Z,84.50
2022-12-03T16:02:52.646Z,88.00
2022-12-03T16:05:27.660Z,91.60
2022-12-03T16:07:59.247Z,86.20
2022-12-03T16:13:17.603Z,98.90
2022-12-03T16:15:49.270Z,100.30
2022-12-03T16:18:20.971Z,88.90
2022-12-03T16:20:52.500Z,82.80
2022-12-03T16:23:35.523Z,90.90
2022-12-03T16:26:10.183Z,82.50
2022-12-03T16:28:41.947Z,75.30
2022-12-03T16:31:14.068Z,88.60
2022-12-03T16:33:45.674Z,86.30
2022-12-03T16:36:17.857Z,75.80
2022-12-03T16:41:34.795Z,74.90
2022-12-03T16:44:06.628Z,75.30
2022-12-03T16:49:24.781Z,66.70
2022-12-03T16:54:47.653Z,74.30
2022-12-03T17:00:11.626Z,69.60
2022-12-03T17:02:43.312Z,66.10
2022-12-03T17:05:15.200Z,71.70
2022-12-03T17:07:46.802Z,77.30
2022-12-03T17:10:18.481Z,82.50
2022-12-03T17:15:42.196Z,79.10
2022-12-03T17:18:13.927Z,86.10
2022-12-03T17:20:45.507Z,74.30
2022-12-03T17:23:18.516Z,67.40
2022-12-03T17:25:49.987Z,69.90
2022-12-03T17:28:21.525Z,70.10
2022-12-03T17:30:53.132Z,75.50
2022-12-03T17:33:24.781Z,84.90
2022-12-03T17:35:56.292Z,75.90
2022-12-03T17:38:28.059Z,76.10
2022-12-03T17:40:59.531Z,82.20
2022-12-03T17:43:31.038Z,84.40
2022-12-03T17:46:02.575Z,70.50
2022-12-03T17:48:35.272Z,65.10
2022-12-03T17:51:07.318Z,66.60
2022-12-03T17:53:38.837Z,65.70
2022-12-03T17:56:10.633Z,64.40
2022-12-03T17:58:42.129Z,74.60
2022-12-03T18:01:14.217Z,71.60
2022-12-03T18:03:45.760Z,80.20
2022-12-03T18:06:17.295Z,69.10
2022-12-03T18:08:48.796Z,77.90
2022-12-03T18:11:20.367Z,87.00
2022-12-03T18:13:52.968Z,86.30
2022-12-03T18:16:25.782Z,82.10
2022-12-03T18:19:00.902Z,82.20
2022-12-03T18:21:36.636Z,84.50
2022-12-03T18:24:10.157Z,91.50
2022-12-03T18:29:11.786Z,87.50
2022-12-03T18:31:43.354Z,81.20
2022-12-03T18:34:14.962Z,85.90
2022-12-03T18:36:46.976Z,86.30
2022-12-03T18:39:25.860Z,90.20
2022-12-03T18:41:57.426Z,97.40
2022-12-03T18:44:29.087Z,90.50
2022-12-03T18:47:02.463Z,88.40
2022-12-03T18:52:04.305Z,84.00
2022-12-03T18:54:36.108Z,81.90
2022-12-03T18:57:07.822Z,87.80
2022-12-03T18:59:39.568Z,83.10
2022-12-03T19:02:38.665Z,86.30
2022-12-03T19:05:10.468Z,82.10
2022-12-03T19:07:43.292Z,95.50
2022-12-03T19:10:15.223Z,85.80
2022-12-03T19:12:46.805Z,94.70
2022-12-03T19:15:18.896Z,95.10
2022-12-03T19:17:52.328Z,88.20
2022-12-03T19:20:23.860Z,90.80
2022-12-03T19:22:55.538Z,86.10
2022-12-03T19:25:27.071Z,82.80
2022-12-03T19:27:58.642Z,88.50
2022-12-03T19:30:30.262Z,103.20
2022-12-03T19:33:01.880Z,99.60
2022-12-03T19:35:33.528Z,101.40
2022-12-03T19:38:05.080Z,94.80
2022-12-03T19:40:36.613Z,86.30
2022-12-03T19:43:08.131Z,96.70
2022-12-03T19:45:39.708Z,80.70
2022-12-03T19:48:11.221Z,83.20
2022-12-03T19:51:02.948Z,83.90
2022-12-03T19:53:42.687Z,83.50
2022-12-03T19:56:16.145Z,90.50
2022-12-03T19:58:48.639Z,90.30
2022-12-03T20:01:22.049Z,93.60
2022-12-03T20:03:55.576Z,87.90
2022-12-03T20:06:30.631Z,88.20
2022-12-03T20:09:04.881Z,91.00
2022-12-03T20:11:37.146Z,100.10
2022-12-03T20:14:10.542Z,101.50
2022-12-03T20:16:42.787Z,108.40
2022-12-03T20:19:17.431Z,97.00
2022-12-03T20:21:49.297Z,109.30
2022-12-03T20:24:20.905Z,101.90
2022-12-03T20:26:52.623Z,104.60
2022-12-03T20:29:24.146Z,103.50
2022-12-03T20:31:56.015Z,98.40
2022-12-03T20:34:27.633Z,108.80
2022-12-03T20:36:59.131Z,103.50
2022-12-03T20:39:30.674Z,108.70
2022-12-03T20:42:02.179Z,107.90
2022-12-03T20:44:33.780Z,97.20
2022-12-03T20:47:05.449Z,88.70
2022-12-03T20:49:40.261Z,98.80
2022-12-03T20:52:12.119Z,102.40
2022-12-03T20:54:43.669Z,109.20
2022-12-03T20:57:15.153Z,119.80
2022-12-03T20:59:46.699Z,122.50
2022-12-03T21:02:18.248Z,115.70
2022-12-03T21:04:50.147Z,125.80
2022-12-03T21:07:22.698Z,123.30
2022-12-03T21:09:54.799Z,110.10
2022-12-03T21:12:28.015Z,107.10
2022-12-03T21:14:59.707Z,92.90
2022-12-03T21:17:31.253Z,109.70
2022-12-03T21:20:02.927Z,105.50
2022-12-03T21:22:34.405Z,96.60
2022-12-03T21:25:06.944Z,105.80
2022-12-03T21:27:38.594Z,103.30
2022-12-03T21:30:11.698Z,107.60
2022-12-03T21:32:43.162Z,101.10
2022-12-03T21:35:14.946Z,102.00
2022-12-03T21:37:46.550Z,106.90
2022-12-03T21:40:18.514Z,106.40
2022-12-03T21:42:50.043Z,107.30
2022-12-03T21:45:25.027Z,98.50
2022-12-03T21:47:56.756Z,93.50
2022-12-03T21:50:28.449Z,98.30
2022-12-03T21:52:59.943Z,93.20
2022-12-03T21:55:31.476Z,95.60
2022-12-03T21:58:03.030Z,94.80
2022-12-03T22:00:34.618Z,91.50
2022-12-03T22:03:06.209Z,84.50
2022-12-03T22:05:40.077Z,93.10
2022-12-03T22:08:13.774Z,91.00
2022-12-03T22:10:45.392Z,95.80
2022-12-03T22:13:16.962Z,92.70
2022-12-03T22:15:48.613Z,89.60
2022-12-03T22:18:20.241Z,88.20
2022-12-03T22:20:51.833Z,91.50
2022-12-03T22:23:23.391Z,80.80
2022-12-03T22:26:02.212Z,85.40
2022-12-03T22:28:34.591Z,75.00
2022-12-03T22:31:09.568Z,73.00
2022-12-03T22:33:41.857Z,79.30
2022-12-03T22:36:20.607Z,76.70
2022-12-03T22:38:54.135Z,71.60
2022-12-03T22:41:25.673Z,73.20
2022-12-03T22:43:57.180Z,70.80
2022-12-03T22:46:28.769Z,70.40
2022-12-03T22:49:06.500Z,66.70
2022-12-03T22:51:38.758Z,65.70
2022-12-03T22:54:11.507Z,68.40
2022-12-03T22:56:42.988Z,62.10
2022-12-03T22:59:14.724Z,74.30
2022-12-03T23:01:46.292Z,70.30
2022-12-03T23:04:17.953Z,80.60
2022-12-03T23:06:49.661Z,79.30
2022-12-03T23:09:21.261Z,81.30
2022-12-03T23:11:52.817Z,70.40
2022-12-03T23:14:24.363Z,74.40
2022-12-03T23:16:55.863Z,68.70
2022-12-03T23:19:27.368Z,74.10
2022-12-03T23:21:59.276Z,66.40
2022-12-03T23:24:30.757Z,67.80
2022-12-03T23:27:02.251Z,67.40
2022-12-03T23:29:35.135Z,71.30
2022-12-03T23:32:06.801Z,64.30
2022-12-03T23:34:38.384Z,73.10
2022-12-03T23:37:10.046Z,71.80
2022-12-03T23:39:41.764Z,74.70
2022-12-03T23:42:13.273Z,70.70
2022-12-03T23:44:44.841Z,75.40
2022-12-03T23:47:17.658Z,72.60
2022-12-03T23:49:49.239Z,61.90
2022-12-03T23:52:20.766Z,57.90
2022-12-03T23:54:52.372Z,56.50
2022-12-03T23:57:23.910Z,54.10
2022-12-03T23:59:55.634Z,55.30
